createdAt,value
2023-04-12T00:00:04.384Z,76.12
2023-04-12T00:02:06.777Z,76.29
2023-04-12T00:04:10.273Z,75.99
2023-04-12T00:06:13.580Z,75.71
2023-04-12T00:08:17.165Z,75.55
2023-04-12T00:10:19.807Z,74.99
2023-04-12T00:12:21.962Z,75.33
2023-04-12T00:14:24.507Z,75.84
2023-04-12T00:16:26.858Z,75.98
2023-04-12T00:18:29.084Z,76.10
2023-04-12T00:20:31.198Z,75.42
2023-04-12T00:22:33.859Z,75.73
2023-04-12T00:24:36.046Z,75.73
2023-04-12T00:26:38.072Z,75.66
2023-04-12T00:28:40.752Z,74.80
2023-04-12T00:30:42.864Z,74.44
2023-04-12T00:32:45.079Z,74.66
2023-04-12T00:34:47.349Z,75.53
2023-04-12T00:36:50.091Z,74.45
2023-04-12T00:38:52.085Z,74.09
2023-04-12T00:40:54.279Z,74.64
2023-04-12T00:42:58.158Z,73.43
2023-04-12T00:45:00.248Z,73.11
2023-04-12T00:47:04.215Z,73.54
2023-04-12T00:49:06.788Z,73.16
2023-04-12T00:51:09.547Z,73.33
2023-04-12T00:53:13.766Z,72.55
2023-04-12T00:55:16.213Z,72.14
2023-04-12T00:57:18.416Z,72.27
2023-04-12T00:59:20.653Z,72.04
2023-04-12T01:01:22.893Z,72.53
2023-04-12T01:03:28.104Z,71.86
2023-04-12T01:05:30.789Z,72.21
2023-04-12T01:07:33.600Z,72.15
2023-04-12T01:09:40.079Z,72.22
2023-04-12T01:11:46.107Z,71.58
2023-04-12T01:13:59.191Z,71.16
2023-04-12T01:16:12.993Z,69.95
2023-04-12T01:18:20.005Z,68.56
2023-04-12T01:20:26.698Z,68.64
2023-04-12T01:22:33.574Z,67.98
2023-04-12T01:24:41.919Z,68.30
2023-04-12T01:26:48.056Z,68.38
2023-04-12T01:28:54.480Z,67.43
2023-04-12T01:30:56.795Z,67.50
2023-04-12T01:33:02.149Z,67.10
2023-04-12T01:35:07.581Z,67.70
2023-04-12T01:37:10.254Z,66.88
2023-04-12T01:39:12.346Z,66.74
2023-04-12T01:41:14.843Z,66.90
2023-04-12T01:43:16.909Z,66.09
2023-04-12T01:45:19.145Z,66.14
2023-04-12T01:47:21.480Z,65.68
2023-04-12T01:49:32.990Z,66.31
2023-04-12T01:51:38.506Z,65.94
2023-04-12T01:53:48.005Z,65.27
2023-04-12T01:55:52.211Z,65.38
2023-04-12T01:57:54.752Z,66.08
2023-04-12T01:59:59.255Z,65.63
2023-04-12T02:02:03.653Z,66.17
2023-04-12T02:04:07.474Z,65.79
2023-04-12T02:06:11.191Z,66.20
2023-04-12T02:08:13.281Z,66.37
2023-04-12T02:10:15.722Z,66.71
2023-04-12T02:12:17.821Z,64.68
2023-04-12T02:14:19.886Z,64.85
2023-04-12T02:16:23.326Z,64.12
2023-04-12T02:18:25.404Z,63.92
2023-04-12T02:20:27.623Z,63.67
2023-04-12T02:22:29.604Z,63.83
2023-04-12T02:24:32.009Z,63.76
2023-04-12T02:26:34.007Z,63.21
2023-04-12T02:28:37.322Z,63.95
2023-04-12T02:30:42.025Z,64.02
2023-04-12T02:32:45.006Z,63.12
2023-04-12T02:34:51.558Z,62.87
2023-04-12T02:36:53.469Z,63.45
2023-04-12T02:38:56.332Z,62.91
2023-04-12T02:40:58.274Z,63.23
2023-04-12T02:43:00.597Z,63.15
2023-04-12T02:45:02.650Z,62.05
2023-04-12T02:47:04.616Z,62.50
2023-04-12T02:49:06.613Z,62.86
2023-04-12T02:51:08.565Z,62.64
2023-04-12T02:53:10.659Z,62.22
2023-04-12T02:55:12.654Z,62.33
2023-04-12T02:57:16.302Z,62.74
2023-04-12T02:59:18.307Z,62.57
2023-04-12T03:01:20.297Z,62.66
2023-04-12T03:03:22.501Z,63.04
2023-04-12T03:05:24.834Z,62.48
2023-04-12T03:07:28.047Z,62.49
2023-04-12T03:09:29.969Z,63.10
2023-04-12T03:11:32.068Z,62.92
2023-04-12T03:13:34.114Z,63.36
2023-04-12T03:15:36.120Z,63.03
2023-04-12T03:17:38.230Z,63.54
2023-04-12T03:19:40.197Z,63.56
2023-04-12T03:21:42.151Z,63.93
2023-04-12T03:23:44.096Z,63.22
2023-04-12T03:25:46.203Z,63.22
2023-04-12T03:27:48.155Z,63.24
2023-04-12T03:29:50.170Z,63.62
2023-04-12T03:31:52.142Z,63.38
2023-04-12T03:33:54.603Z,63.82
2023-04-12T03:35:56.676Z,63.43
2023-04-12T03:37:58.628Z,63.40
2023-04-12T03:40:01.007Z,63.13
2023-04-12T03:42:02.955Z,62.34
2023-04-12T03:44:05.115Z,61.10
2023-04-12T03:46:07.289Z,61.73
2023-04-12T03:48:11.161Z,61.52
2023-04-12T03:50:13.252Z,62.48
2023-04-12T03:52:15.294Z,61.84
2023-04-12T03:54:17.493Z,63.07
2023-04-12T03:56:21.043Z,63.56
2023-04-12T03:58:23.341Z,63.03
2023-04-12T04:00:25.358Z,63.44
2023-04-12T04:02:27.953Z,63.57
2023-04-12T04:04:30.369Z,63.89
2023-04-12T04:06:33.317Z,64.02
2023-04-12T04:08:35.336Z,63.36
2023-04-12T04:10:37.596Z,62.78
2023-04-12T04:12:39.515Z,62.35
2023-04-12T04:14:41.548Z,62.80
2023-04-12T04:16:43.577Z,62.23
2023-04-12T04:18:45.762Z,62.39
2023-04-12T04:20:47.721Z,62.37
2023-04-12T04:22:50.024Z,62.36
2023-04-12T04:24:51.994Z,61.98
2023-04-12T04:26:54.463Z,61.89
2023-04-12T04:28:56.368Z,62.03
2023-04-12T04:31:05.877Z,62.64
2023-04-12T04:33:08.985Z,62.26
2023-04-12T04:35:11.238Z,62.14
2023-04-12T04:37:13.505Z,62.10
2023-04-12T04:39:15.416Z,62.45
2023-04-12T04:41:17.710Z,62.76
2023-04-12T04:43:20.302Z,62.45
2023-04-12T04:45:26.803Z,62.63
2023-04-12T04:47:30.726Z,63.15
2023-04-12T04:49:33.969Z,63.22
2023-04-12T04:51:36.747Z,63.54
2023-04-12T04:53:38.782Z,63.54
2023-04-12T04:55:41.440Z,63.99
2023-04-12T04:57:44.218Z,63.93
2023-04-12T04:59:46.288Z,64.11
2023-04-12T05:01:48.353Z,64.41
2023-04-12T05:03:51.940Z,64.02
2023-04-12T05:05:55.114Z,63.63
2023-04-12T05:07:58.215Z,64.04
2023-04-12T05:10:00.400Z,63.85
2023-04-12T05:12:02.423Z,64.04
2023-04-12T05:14:04.386Z,64.38
2023-04-12T05:16:08.201Z,64.08
2023-04-12T05:18:10.330Z,64.57
2023-04-12T05:20:12.461Z,64.68
2023-04-12T05:22:14.714Z,64.60
2023-04-12T05:24:16.716Z,64.46
2023-04-12T05:26:18.893Z,65.26
2023-04-12T05:28:20.835Z,65.12
2023-04-12T05:30:22.924Z,64.79
2023-04-12T05:32:26.268Z,64.72
2023-04-12T05:34:28.351Z,64.99
2023-04-12T05:36:30.724Z,64.52
2023-04-12T05:38:32.770Z,64.52
2023-04-12T05:40:36.544Z,64.21
2023-04-12T05:42:38.728Z,65.00
2023-04-12T05:44:41.659Z,64.58
2023-04-12T05:46:43.709Z,64.94
2023-04-12T05:48:45.730Z,64.87
2023-04-12T05:50:52.165Z,64.75
2023-04-12T05:52:55.832Z,64.98
2023-04-12T05:54:57.802Z,64.75
2023-04-12T05:56:59.794Z,64.89
2023-04-12T05:59:02.519Z,64.59
2023-04-12T06:01:05.644Z,64.59
2023-04-12T06:03:09.653Z,64.30
2023-04-12T06:05:13.193Z,64.43
2023-04-12T06:07:19.044Z,63.79
2023-04-12T06:09:20.998Z,63.45
2023-04-12T06:11:23.102Z,63.61
2023-04-12T06:13:25.368Z,63.68
2023-04-12T06:15:27.415Z,63.79
2023-04-12T06:17:29.437Z,63.43
2023-04-12T06:19:31.559Z,64.11
2023-04-12T06:21:33.571Z,63.39
2023-04-12T06:23:35.846Z,63.01
2023-04-12T06:25:38.052Z,63.02
2023-04-12T06:27:40.114Z,63.50
2023-04-12T06:29:42.192Z,63.07
2023-04-12T06:31:44.417Z,62.71
2023-04-12T06:33:47.464Z,63.25
2023-04-12T06:35:50.128Z,63.20
2023-04-12T06:37:52.151Z,63.19
2023-04-12T06:39:54.064Z,63.58
2023-04-12T06:41:57.742Z,62.96
2023-04-12T06:43:59.831Z,62.97
2023-04-12T06:46:03.487Z,62.83
2023-04-12T06:48:05.643Z,62.43
2023-04-12T06:50:08.480Z,62.90
2023-04-12T06:52:10.673Z,62.72
2023-04-12T06:54:14.176Z,62.75
2023-04-12T06:56:18.406Z,62.85
2023-04-12T06:58:21.016Z,62.54
2023-04-12T07:00:23.611Z,62.24
2023-04-12T07:02:25.725Z,62.08
2023-04-12T07:04:27.888Z,62.17
2023-04-12T07:06:30.034Z,62.45
2023-04-12T07:08:35.139Z,62.63
2023-04-12T07:10:37.552Z,62.86
2023-04-12T07:12:39.785Z,62.41
2023-04-12T07:14:44.052Z,62.50
2023-04-12T07:16:46.819Z,62.32
2023-04-12T07:18:49.446Z,62.63
2023-04-12T07:20:54.656Z,62.47
2023-04-12T07:22:56.797Z,62.58
2023-04-12T07:24:59.361Z,62.55
2023-04-12T07:27:01.681Z,62.12
2023-04-12T07:29:05.342Z,62.24
2023-04-12T07:31:07.944Z,62.19
2023-04-12T07:33:19.271Z,61.79
2023-04-12T07:35:22.956Z,61.56
2023-04-12T07:37:25.218Z,61.30
2023-04-12T07:39:29.940Z,61.61
2023-04-12T07:41:32.167Z,61.35
2023-04-12T07:43:34.268Z,61.92
2023-04-12T07:45:38.156Z,61.47
2023-04-12T07:47:40.417Z,60.62
2023-04-12T07:49:42.779Z,61.16
2023-04-12T07:51:45.077Z,60.57
2023-04-12T07:53:48.774Z,60.67
2023-04-12T07:55:52.085Z,60.25
2023-04-12T07:57:54.231Z,60.09
2023-04-12T07:59:57.014Z,59.65
2023-04-12T08:01:59.643Z,59.44
2023-04-12T08:04:05.249Z,59.14
2023-04-12T08:06:13.557Z,58.51
2023-04-12T08:08:15.622Z,58.24
2023-04-12T08:10:17.731Z,58.33
2023-04-12T08:12:21.432Z,57.29
2023-04-12T08:14:23.991Z,56.75
2023-04-12T08:16:26.913Z,56.65
2023-04-12T08:18:29.805Z,55.27
2023-04-12T08:20:32.941Z,56.15
2023-04-12T08:22:35.947Z,56.17
2023-04-12T08:24:38.221Z,55.53
2023-04-12T08:26:40.381Z,55.81
2023-04-12T08:28:43.088Z,55.38
2023-04-12T08:30:46.681Z,55.55
2023-04-12T08:32:48.840Z,54.45
2023-04-12T08:34:53.792Z,53.67
2023-04-12T08:37:06.292Z,53.75
2023-04-12T08:39:09.720Z,53.75
2023-04-12T08:41:11.744Z,53.33
2023-04-12T08:43:15.151Z,52.91
2023-04-12T08:45:17.353Z,52.00
2023-04-12T08:47:21.357Z,52.03
2023-04-12T08:49:25.409Z,52.11
2023-04-12T08:51:28.093Z,52.17
2023-04-12T08:53:30.128Z,51.90
2023-04-12T08:55:32.200Z,51.88
2023-04-12T08:57:36.823Z,51.35
2023-04-12T08:59:42.611Z,51.08
2023-04-12T09:01:45.085Z,51.14
2023-04-12T09:03:47.723Z,51.74
2023-04-12T09:05:50.274Z,50.99
2023-04-12T09:07:52.514Z,50.43
2023-04-12T09:09:55.713Z,50.27
2023-04-12T09:12:08.306Z,51.52
2023-04-12T09:14:18.355Z,52.53
2023-04-12T09:16:35.802Z,53.50
2023-04-12T09:18:50.300Z,54.63
2023-04-12T09:21:08.219Z,55.38
2023-04-12T09:23:17.007Z,54.47
2023-04-12T09:25:19.230Z,53.39
2023-04-12T09:27:21.659Z,53.86
2023-04-12T09:29:26.479Z,54.76
2023-04-12T09:31:29.480Z,53.84
2023-04-12T09:33:43.064Z,53.99
2023-04-12T09:35:45.599Z,53.71
2023-04-12T09:37:58.359Z,53.21
2023-04-12T09:40:05.577Z,53.20
2023-04-12T09:42:17.995Z,52.47
2023-04-12T09:44:30.662Z,51.10
2023-04-12T09:46:34.141Z,49.66
2023-04-12T09:48:37.914Z,50.19
2023-04-12T09:50:40.362Z,50.73
2023-04-12T09:52:42.554Z,50.29
2023-04-12T09:54:46.268Z,48.84
2023-04-12T09:56:49.356Z,47.42
2023-04-12T09:58:54.232Z,47.58
2023-04-12T10:01:00.040Z,48.83
2023-04-12T10:03:02.815Z,49.09
2023-04-12T10:05:06.404Z,49.93
2023-04-12T10:07:10.215Z,49.38
2023-04-12T10:09:14.935Z,50.05
2023-04-12T10:11:18.049Z,50.21
2023-04-12T10:13:20.996Z,49.63
2023-04-12T10:15:25.947Z,48.84
2023-04-12T10:17:29.842Z,48.60
2023-04-12T10:19:34.097Z,48.89
2023-04-12T10:21:36.553Z,48.59
2023-04-12T10:23:38.720Z,48.03
2023-04-12T10:25:44.245Z,46.50
2023-04-12T10:27:47.224Z,44.33
2023-04-12T10:29:49.937Z,44.00
2023-04-12T10:31:52.790Z,43.18
2023-04-12T10:33:56.165Z,42.79
2023-04-12T10:36:03.911Z,43.26
2023-04-12T10:38:07.217Z,43.16
2023-04-12T10:40:17.797Z,43.12
2023-04-12T10:42:27.790Z,42.91
2023-04-12T10:44:30.433Z,42.24
2023-04-12T10:46:37.879Z,42.51
2023-04-12T10:48:51.632Z,41.29
2023-04-12T10:51:16.129Z,40.65
2023-04-12T10:53:23.939Z,40.27
2023-04-12T10:55:30.441Z,39.58
2023-04-12T10:57:39.142Z,39.49
2023-04-12T10:59:51.909Z,39.68
2023-04-12T11:02:10.694Z,39.96
2023-04-12T11:04:26.627Z,40.16
2023-04-12T11:06:35.156Z,37.86
2023-04-12T11:08:41.572Z,39.28
2023-04-12T11:10:47.354Z,39.46
2023-04-12T11:12:55.625Z,39.93
2023-04-12T11:15:02.489Z,40.79
2023-04-12T11:17:09.555Z,39.18
2023-04-12T11:19:13.625Z,38.97
2023-04-12T11:21:16.894Z,38.97
2023-04-12T11:23:20.662Z,39.70
2023-04-12T11:25:23.820Z,39.68
2023-04-12T11:27:29.305Z,38.46
2023-04-12T11:29:34.774Z,38.79
2023-04-12T11:31:39.791Z,38.28
2023-04-12T11:33:42.969Z,37.89
2023-04-12T11:35:47.372Z,38.05
2023-04-12T11:37:50.532Z,38.80
2023-04-12T11:39:56.584Z,39.00
2023-04-12T11:41:59.980Z,40.95
2023-04-12T11:44:04.093Z,42.04
2023-04-12T11:46:07.462Z,43.17
2023-04-12T11:48:14.623Z,43.84
2023-04-12T11:50:31.551Z,43.71
2023-04-12T11:52:35.536Z,43.73
2023-04-12T11:54:38.507Z,44.50
2023-04-12T11:56:43.854Z,44.99
2023-04-12T11:58:48.932Z,44.96
2023-04-12T12:00:51.538Z,45.15
2023-04-12T12:03:06.888Z,45.29
2023-04-12T12:05:11.834Z,49.94
2023-04-12T12:07:17.820Z,50.77
2023-04-12T12:09:21.561Z,51.46
2023-04-12T12:11:25.409Z,50.75
2023-04-12T12:13:28.052Z,49.86
2023-04-12T12:15:44.548Z,49.48
2023-04-12T12:17:51.888Z,48.50
2023-04-12T12:19:59.752Z,48.58
2023-04-12T12:22:13.372Z,51.09
2023-04-12T12:24:16.933Z,55.15
2023-04-12T12:26:25.656Z,54.92
2023-04-12T12:28:28.692Z,53.89
2023-04-12T12:30:32.368Z,51.20
2023-04-12T12:32:37.601Z,50.81
2023-04-12T12:34:42.109Z,50.19
2023-04-12T12:36:44.532Z,49.72
2023-04-12T12:38:49.465Z,49.06
2023-04-12T12:40:53.136Z,49.00
2023-04-12T12:42:56.915Z,49.44
2023-04-12T12:44:59.539Z,49.72
2023-04-12T12:47:10.100Z,49.25
2023-04-12T12:49:16.680Z,49.27
2023-04-12T12:51:20.572Z,49.38
2023-04-12T12:53:24.603Z,50.38
2023-04-12T12:55:28.798Z,51.23
2023-04-12T12:57:32.125Z,53.66
2023-04-12T12:59:34.631Z,55.31
2023-04-12T13:01:37.441Z,56.44
2023-04-12T13:03:41.055Z,58.27
2023-04-12T13:05:43.984Z,56.47
2023-04-12T13:07:47.119Z,56.86
2023-04-12T13:09:50.950Z,55.38
2023-04-12T13:11:53.676Z,54.51
2023-04-12T13:13:58.279Z,56.46
2023-04-12T13:16:00.895Z,53.68
2023-04-12T13:18:03.483Z,55.84
2023-04-12T13:20:06.720Z,55.44
2023-04-12T13:22:09.365Z,53.88
2023-04-12T13:24:11.828Z,53.61
2023-04-12T13:26:14.254Z,54.45
2023-04-12T13:28:17.540Z,58.34
2023-04-12T13:30:20.823Z,60.24
2023-04-12T13:32:23.663Z,61.34
2023-04-12T13:34:26.885Z,61.11
2023-04-12T13:36:29.459Z,61.06
2023-04-12T13:38:32.230Z,60.26
2023-04-12T13:40:36.578Z,59.86
2023-04-12T13:42:39.056Z,58.27
2023-04-12T13:44:44.860Z,57.36
2023-04-12T13:46:47.268Z,58.25
2023-04-12T13:48:49.982Z,57.82
2023-04-12T13:50:53.578Z,58.12
2023-04-12T13:52:58.362Z,57.60
2023-04-12T13:55:01.045Z,57.44
2023-04-12T13:57:04.525Z,58.12
2023-04-12T13:59:07.287Z,58.96
2023-04-12T14:01:10.279Z,58.96
2023-04-12T14:03:13.874Z,59.48
2023-04-12T14:05:16.485Z,59.97
2023-04-12T14:07:18.989Z,59.31
2023-04-12T14:09:26.661Z,60.36
2023-04-12T14:11:29.225Z,59.46
2023-04-12T14:13:31.646Z,59.23
2023-04-12T14:15:33.898Z,59.74
2023-04-12T14:17:37.538Z,59.65
2023-04-12T14:19:44.057Z,60.44
2023-04-12T14:21:54.897Z,59.54
2023-04-12T14:23:57.194Z,60.06
2023-04-12T14:26:00.339Z,61.49
2023-04-12T14:28:03.236Z,62.22
2023-04-12T14:30:07.573Z,62.44
2023-04-12T14:32:10.010Z,63.78
2023-04-12T14:34:13.784Z,63.56
2023-04-12T14:36:16.444Z,63.49
2023-04-12T14:38:18.935Z,63.92
2023-04-12T14:40:21.631Z,62.65
2023-04-12T14:42:24.191Z,62.22
2023-04-12T14:44:27.772Z,60.77
2023-04-12T14:46:33.898Z,60.65
2023-04-12T14:48:36.690Z,59.43
2023-04-12T14:50:39.665Z,59.79
2023-04-12T14:52:42.311Z,58.05
2023-04-12T14:54:44.677Z,57.13
2023-04-12T14:56:54.346Z,58.24
2023-04-12T14:58:58.730Z,58.44
2023-04-12T15:01:01.705Z,57.93
2023-04-12T15:03:05.908Z,57.86
2023-04-12T15:05:12.191Z,58.67
2023-04-12T15:07:14.840Z,58.52
2023-04-12T15:09:18.508Z,58.78
2023-04-12T15:11:23.013Z,59.04
2023-04-12T15:13:33.194Z,59.27
2023-04-12T15:15:36.681Z,59.56
2023-04-12T15:17:39.262Z,59.88
2023-04-12T15:19:41.372Z,60.24
2023-04-12T15:21:46.885Z,60.67
2023-04-12T15:23:53.874Z,61.25
2023-04-12T15:26:03.243Z,61.24
2023-04-12T15:28:06.384Z,61.37
2023-04-12T15:30:11.288Z,61.10
2023-04-12T15:32:13.928Z,61.02
2023-04-12T15:34:16.674Z,61.28
2023-04-12T15:36:19.879Z,61.59
2023-04-12T15:38:23.760Z,61.22
2023-04-12T15:40:26.649Z,60.49
2023-04-12T15:42:29.438Z,61.39
2023-04-12T15:44:32.690Z,60.76
2023-04-12T15:46:36.784Z,60.78
2023-04-12T15:48:39.142Z,60.55
2023-04-12T15:50:42.006Z,61.26
2023-04-12T15:52:44.947Z,61.14
2023-04-12T15:54:47.159Z,60.84
2023-04-12T15:56:51.098Z,60.08
2023-04-12T15:58:57.602Z,60.19
2023-04-12T16:01:00.605Z,60.53
2023-04-12T16:03:03.229Z,60.06
2023-04-12T16:05:07.221Z,60.71
2023-04-12T16:07:18.237Z,60.34
2023-04-12T16:09:22.883Z,60.71
2023-04-12T16:11:34.673Z,60.22
2023-04-12T16:13:38.664Z,60.81
2023-04-12T16:15:45.227Z,60.44
2023-04-12T16:17:49.816Z,60.05
2023-04-12T16:19:53.675Z,59.46
2023-04-12T16:22:03.572Z,59.39
2023-04-12T16:24:09.880Z,59.65
2023-04-12T16:26:13.766Z,60.09
2023-04-12T16:28:19.316Z,60.56
2023-04-12T16:30:24.060Z,61.03
2023-04-12T16:32:28.110Z,61.10
2023-04-12T16:34:32.511Z,60.95
2023-04-12T16:36:41.362Z,61.35
2023-04-12T16:38:47.382Z,60.96
2023-04-12T16:40:51.134Z,61.42
2023-04-12T16:42:54.513Z,61.34
2023-04-12T16:44:57.264Z,61.60
2023-04-12T16:47:01.234Z,61.71
2023-04-12T16:49:11.078Z,62.24
2023-04-12T16:51:14.193Z,62.46
2023-04-12T16:53:17.374Z,62.90
2023-04-12T16:55:21.029Z,63.20
2023-04-12T16:57:24.317Z,63.42
2023-04-12T16:59:27.168Z,62.90
2023-04-12T17:01:31.267Z,63.05
2023-04-12T17:06:27.788Z,62.31
2023-04-12T17:08:40.090Z,63.04
2023-04-12T17:11:00.885Z,63.88
2023-04-12T17:13:11.734Z,63.65
2023-04-12T17:15:36.014Z,63.82
2023-04-12T17:17:39.264Z,64.46
2023-04-12T17:19:44.637Z,64.14
2023-04-12T17:21:49.246Z,63.93
2023-04-12T17:23:54.310Z,63.82
2023-04-12T17:26:01.583Z,63.46
2023-04-12T17:28:06.585Z,63.71
2023-04-12T17:30:14.712Z,63.62
2023-04-12T17:32:18.009Z,64.06
2023-04-12T17:39:18.355Z,64.36
2023-04-12T17:41:28.160Z,64.11
2023-04-12T17:43:33.405Z,64.56
2023-04-12T17:46:08.873Z,63.85
2023-04-12T17:48:23.077Z,64.10
2023-04-12T17:50:37.969Z,63.69
2023-04-12T17:52:52.893Z,63.81
2023-04-12T17:59:50.543Z,64.81
2023-04-12T18:02:52.089Z,64.60
2023-04-12T18:07:28.956Z,67.23
2023-04-12T18:09:55.069Z,68.78
2023-04-12T18:12:15.800Z,69.16
2023-04-12T18:14:38.597Z,68.18
2023-04-12T18:17:01.276Z,68.14
2023-04-12T18:19:26.530Z,65.65
2023-04-12T18:22:01.742Z,65.14
2023-04-12T18:24:25.123Z,63.25
2023-04-12T18:26:41.081Z,63.14
2023-04-12T18:28:51.036Z,63.08
2023-04-12T18:30:58.596Z,63.40
2023-04-12T18:35:36.528Z,63.38
2023-04-12T18:40:01.911Z,63.78
2023-04-12T18:42:05.234Z,64.54
2023-04-12T18:44:09.502Z,64.95
2023-04-12T18:46:18.016Z,64.50
2023-04-12T18:48:21.179Z,64.29
2023-04-12T18:50:24.660Z,65.65
2023-04-12T18:52:27.942Z,65.47
2023-04-12T18:54:30.792Z,65.92
2023-04-12T18:56:43.630Z,66.24
2023-04-12T18:58:55.233Z,66.04
2023-04-12T19:01:10.486Z,65.84
2023-04-12T19:03:14.007Z,66.11
2023-04-12T19:05:18.065Z,66.46
2023-04-12T19:07:21.496Z,65.82
2023-04-12T19:09:24.733Z,65.73
2023-04-12T19:11:28.067Z,65.83
2023-04-12T19:13:30.526Z,66.48
2023-04-12T19:15:33.008Z,66.14
2023-04-12T19:17:39.467Z,66.28
2023-04-12T19:19:43.088Z,66.41
2023-04-12T19:21:46.377Z,66.02
2023-04-12T19:23:48.959Z,66.86
2023-04-12T19:25:53.367Z,66.17
2023-04-12T19:27:56.391Z,67.08
2023-04-12T19:29:59.086Z,66.99
2023-04-12T19:32:03.014Z,67.19
2023-04-12T19:34:06.446Z,67.47
2023-04-12T19:36:09.893Z,67.46
2023-04-12T19:38:12.877Z,68.39
2023-04-12T19:40:15.938Z,67.55
2023-04-12T19:42:18.772Z,67.88
2023-04-12T19:44:23.745Z,67.76
2023-04-12T19:46:26.767Z,68.65
2023-04-12T19:48:30.469Z,68.52
2023-04-12T19:50:33.131Z,68.44
2023-04-12T19:52:36.232Z,68.73
2023-04-12T19:54:39.814Z,69.07
2023-04-12T19:56:42.672Z,69.17
2023-04-12T19:58:45.814Z,69.71
2023-04-12T20:00:52.594Z,69.85
2023-04-12T20:02:55.729Z,71.36
2023-04-12T20:05:00.125Z,70.62
2023-04-12T20:07:02.955Z,71.01
2023-04-12T20:09:06.126Z,71.55
2023-04-12T20:11:09.315Z,71.54
2023-04-12T20:13:16.001Z,70.80
2023-04-12T20:15:19.597Z,70.48
2023-04-12T20:17:22.916Z,70.03
2023-04-12T20:19:27.854Z,69.97
2023-04-12T20:21:32.560Z,69.51
2023-04-12T20:23:36.125Z,69.03
2023-04-12T20:25:39.033Z,68.97
2023-04-12T20:27:42.609Z,69.57
2023-04-12T20:29:47.796Z,69.31
2023-04-12T20:31:52.767Z,69.15
2023-04-12T20:33:57.352Z,69.13
2023-04-12T20:36:00.181Z,68.50
2023-04-12T20:38:03.719Z,68.87
2023-04-12T20:40:10.079Z,68.67
2023-04-12T20:42:13.578Z,68.30
2023-04-12T20:44:18.301Z,67.83
2023-04-12T20:46:25.997Z,68.35
2023-04-12T20:48:28.979Z,67.73
2023-04-12T20:50:31.475Z,67.64
2023-04-12T20:52:36.453Z,68.29
2023-04-12T20:54:39.329Z,68.17
2023-04-12T20:56:42.539Z,68.83
2023-04-12T20:58:46.260Z,69.47
2023-04-12T21:00:49.638Z,69.25
2023-04-12T21:02:52.177Z,69.90
2023-04-12T21:04:54.506Z,69.69
2023-04-12T21:06:57.889Z,70.08
2023-04-12T21:09:00.267Z,69.53
2023-04-12T21:11:02.930Z,69.20
2023-04-12T21:13:05.283Z,68.09
2023-04-12T21:15:08.779Z,67.98
2023-04-12T21:17:10.948Z,68.20
2023-04-12T21:19:13.508Z,68.24
2023-04-12T21:21:16.192Z,68.43
2023-04-12T21:23:18.844Z,68.37
2023-04-12T21:25:21.453Z,68.38
2023-04-12T21:27:23.613Z,67.82
2023-04-12T21:29:25.653Z,67.12
2023-04-12T21:31:29.262Z,66.92
2023-04-12T21:33:32.340Z,67.32
2023-04-12T21:35:34.499Z,67.30
2023-04-12T21:37:38.472Z,67.47
2023-04-12T21:39:40.655Z,66.81
2023-04-12T21:41:42.794Z,67.22
2023-04-12T21:43:47.780Z,66.22
2023-04-12T21:45:49.827Z,66.72
2023-04-12T21:47:53.681Z,66.38
2023-04-12T21:49:55.960Z,66.21
2023-04-12T21:51:59.281Z,66.35
2023-04-12T21:54:01.889Z,65.98
2023-04-12T21:56:05.619Z,65.54
2023-04-12T21:58:07.749Z,65.78
2023-04-12T22:00:10.853Z,65.32
2023-04-12T22:02:13.159Z,65.94
2023-04-12T22:04:15.245Z,65.53
2023-04-12T22:06:19.782Z,64.98
2023-04-12T22:08:23.934Z,65.10
2023-04-12T22:10:25.896Z,64.47
2023-04-12T22:12:27.974Z,64.07
2023-04-12T22:14:29.890Z,64.82
2023-04-12T22:16:33.075Z,64.61
2023-04-12T22:18:35.930Z,64.70
2023-04-12T22:20:38.481Z,64.54
2023-04-12T22:22:41.511Z,64.19
2023-04-12T22:24:44.344Z,63.54
2023-04-12T22:26:46.322Z,63.57
2023-04-12T22:28:50.157Z,63.42
2023-04-12T22:30:52.423Z,63.55
2023-04-12T22:32:54.693Z,63.64
2023-04-12T22:35:08.278Z,63.70
2023-04-12T22:37:12.070Z,64.46
2023-04-12T22:39:18.285Z,64.11
2023-04-12T22:41:20.519Z,63.85
2023-04-12T22:43:22.968Z,64.22
2023-04-12T22:45:25.229Z,63.39
2023-04-12T22:47:27.380Z,63.13
2023-04-12T22:49:29.441Z,63.36
2023-04-12T22:51:32.763Z,64.08
2023-04-12T22:53:34.779Z,64.09
2023-04-12T22:55:36.916Z,63.44
2023-04-12T22:57:39.072Z,64.10
2023-04-12T22:59:41.015Z,63.64
2023-04-12T23:01:44.906Z,63.59
2023-04-12T23:03:47.112Z,64.06
2023-04-12T23:05:50.392Z,64.43
2023-04-12T23:07:52.443Z,64.47
2023-04-12T23:09:56.215Z,64.05
2023-04-12T23:11:58.326Z,64.52
2023-04-12T23:14:00.708Z,64.13
2023-04-12T23:16:03.762Z,63.67
2023-04-12T23:18:08.691Z,64.07
2023-04-12T23:20:13.510Z,63.84
2023-04-12T23:22:44.572Z,63.38
2023-04-12T23:24:54.473Z,63.29
2023-04-12T23:26:58.041Z,62.98
2023-04-12T23:29:02.454Z,63.07
2023-04-12T23:31:05.893Z,64.36
2023-04-12T23:33:09.495Z,64.27
2023-04-12T23:35:12.336Z,64.90
2023-04-12T23:37:15.201Z,67.26
2023-04-12T23:39:18.253Z,66.80
2023-04-12T23:41:20.260Z,67.92
2023-04-12T23:43:23.637Z,67.70
2023-04-12T23:45:25.920Z,68.29
2023-04-12T23:47:27.936Z,68.21
2023-04-12T23:49:29.846Z,68.08
2023-04-12T23:51:31.856Z,68.07
2023-04-12T23:53:33.880Z,67.88
2023-04-12T23:55:36.016Z,67.70
2023-04-12T23:57:37.983Z,68.08
2023-04-12T23:59:40.069Z,67.08
